Time;durP1;ratioP1;P1;durP2;ratioP2;P2;SDS_P1;SDS_P2;PMS_P1;PMS_P2;Temp;Humidity;BMP_temperature;BMP_pressure;BME280_temperature;BME280_humidity;BME280_pressure;Samples;Min_cycle;Max_cycle;Signal;HPM_P1;HPM_P2
2022/06/29 00:00:17;;;;;;;2.17;1.90;;;;;;;20.74;57.60;99760.13;4985387;28;20023;-86
2022/06/29 00:02:43;;;;;;;2.55;1.33;;;;;;;20.74;57.81;99767.44;4969126;28;20026;-86
2022/06/29 00:05:10;;;;;;;2.15;1.50;;;;;;;20.69;58.17;99761.78;4969919;28;20525;-85
2022/06/29 00:07:35;;;;;;;2.95;1.30;;;;;;;20.68;58.41;99766.41;4972140;28;20070;-85
2022/06/29 00:10:01;;;;;;;2.60;1.20;;;;;;;20.69;58.21;99761.78;4968903;28;20096;-87
2022/06/29 00:12:26;;;;;;;3.25;1.30;;;;;;;20.64;58.53;99764.31;4968624;28;20030;-85
2022/06/29 00:14:52;;;;;;;1.90;1.40;;;;;;;20.62;58.87;99763.66;4968513;28;20065;-85
2022/06/29 00:17:17;;;;;;;2.10;1.30;;;;;;;20.59;58.52;99764.94;4968463;28;20026;-85
2022/06/29 00:19:43;;;;;;;2.40;1.52;;;;;;;20.58;58.98;99757.81;4984259;28;20061;-85
2022/06/29 00:22:08;;;;;;;4.75;1.55;;;;;;;20.57;59.23;99758.88;4968543;28;20473;-85
2022/06/29 00:24:34;;;;;;;3.70;1.75;;;;;;;20.56;58.42;99756.34;4967991;28;20487;-85
2022/06/29 00:27:00;;;;;;;3.45;1.75;;;;;;;20.55;58.81;99757.41;4984861;28;20027;-86
2022/06/29 00:29:25;;;;;;;5.43;3.70;;;;;;;20.49;58.89;99753.63;5000962;28;20049;-84
2022/06/29 00:31:51;;;;;;;4.60;2.95;;;;;;;20.51;58.08;99754.25;4968308;28;20030;-85
2022/06/29 00:34:16;;;;;;;4.43;3.40;;;;;;;20.50;58.23;99752.59;4967562;28;20511;-86
2022/06/29 00:36:42;;;;;;;30.33;22.55;;;;;;;20.51;58.51;99754.25;4968398;28;20038;-85
2022/06/29 00:39:07;;;;;;;61.55;41.72;;;;;;;20.52;58.23;99753.22;4967048;28;20129;-89
2022/06/29 00:41:40;;;;;;;62.72;37.08;;;;;;;20.50;57.75;99763.47;4967268;28;20057;-85
2022/06/29 00:44:07;;;;;;;10.68;7.38;;;;;;;20.47;57.74;99755.72;4967438;28;20035;-85
2022/06/29 00:46:33;;;;;;;5.85;4.30;;;;;;;20.45;58.86;99746.09;4968282;28;20038;-85
2022/06/29 00:48:59;;;;;;;2.92;2.40;;;;;;;20.44;58.20;99745.28;4968012;28;20026;-88
2022/06/29 00:51:24;;;;;;;3.55;1.95;;;;;;;20.41;57.41;99737.53;4983664;28;20346;-86
2022/06/29 00:53:50;;;;;;;1.60;1.45;;;;;;;20.41;58.09;99745.69;4966670;28;20077;-85
2022/06/29 00:56:16;;;;;;;1.80;1.50;;;;;;;20.41;58.23;99740.25;4984243;28;20041;-85
2022/06/29 00:58:42;;;;;;;2.47;1.38;;;;;;;20.41;58.39;99732.09;4967429;28;20236;-86
2022/06/29 01:01:08;;;;;;;1.95;1.30;;;;;;;20.41;58.44;99738.38;5000258;28;20037;-85
2022/06/29 01:03:33;;;;;;;1.75;1.30;;;;;;;20.39;58.41;99737.75;4982873;28;20934;-85
2022/06/29 01:06:00;;;;;;;2.67;1.20;;;;;;;20.40;58.95;99730.44;4967859;28;20034;-85
2022/06/29 01:08:26;;;;;;;1.98;1.15;;;;;;;20.35;58.36;99732.91;4983117;28;20271;-85
2022/06/29 01:10:51;;;;;;;1.40;1.25;;;;;;;20.32;58.36;99728.69;4966970;28;20041;-85
2022/06/29 01:13:16;;;;;;;1.40;1.30;;;;;;;20.31;58.21;99727.00;4967783;28;20088;-86
2022/06/29 01:15:42;;;;;;;2.17;1.40;;;;;;;20.31;58.83;99729.72;4966105;28;20062;-85
2022/06/29 01:18:07;;;;;;;1.83;1.45;;;;;;;20.31;57.91;99720.75;4984105;28;20036;-85
2022/06/29 01:20:33;;;;;;;2.00;1.50;;;;;;;20.27;58.30;99722.19;4967926;28;20053;-85
2022/06/29 01:22:59;;;;;;;2.38;1.30;;;;;;;20.22;58.43;99721.97;4983779;28;20353;-85
2022/06/29 01:25:25;;;;;;;3.22;1.42;;;;;;;20.19;58.87;99725.94;4967468;28;20034;-85
2022/06/29 01:27:50;;;;;;;1.83;1.52;;;;;;;20.23;58.42;99729.09;4967173;28;20356;-85
2022/06/29 01:30:15;;;;;;;1.60;1.13;;;;;;;20.20;58.09;99722.19;4984002;28;20125;-85
2022/06/29 01:32:42;;;;;;;2.83;1.17;;;;;;;20.17;58.67;99728.03;4983315;28;20341;-85
2022/06/29 01:35:10;;;;;;;1.30;1.20;;;;;;;20.12;58.71;99719.66;4967717;28;20059;-85
2022/06/29 01:37:35;;;;;;;4.00;1.25;;;;;;;20.13;58.84;99718.63;4967294;28;20062;-86
2022/06/29 01:40:02;;;;;;;1.40;1.30;;;;;;;20.13;58.99;99722.19;4967488;28;20075;-85
2022/06/29 01:42:27;;;;;;;2.90;1.20;;;;;;;20.11;58.86;99713.41;4966937;28;20026;-86
2022/06/29 01:44:53;;;;;;;1.98;1.20;;;;;;;20.10;58.84;99719.88;4980880;28;20030;-85
2022/06/29 01:47:18;;;;;;;2.42;1.40;;;;;;;20.10;59.19;99717.16;4983745;28;20034;-85
2022/06/29 01:49:43;;;;;;;1.52;1.33;;;;;;;20.09;58.79;99715.50;4966138;28;20042;-85
2022/06/29 01:52:09;;;;;;;2.53;1.30;;;;;;;20.06;58.33;99701.50;4982990;28;20023;-86
2022/06/29 01:54:34;;;;;;;1.45;1.30;;;;;;;20.04;58.36;99703.56;4982607;28;20104;-85
2022/06/29 01:56:59;;;;;;;2.15;1.48;;;;;;;20.01;58.64;99707.53;4967079;28;20113;-85
2022/06/29 01:59:25;;;;;;;2.40;1.60;;;;;;;19.98;59.24;99699.81;4981927;28;20503;-85
2022/06/29 02:01:50;;;;;;;2.10;1.42;;;;;;;19.95;58.55;99704.81;4983193;28;20030;-85
2022/06/29 02:04:15;;;;;;;2.30;1.50;;;;;;;19.91;58.76;99700.84;4982259;28;20377;-86
2022/06/29 02:06:41;;;;;;;2.28;1.55;;;;;;;19.89;59.47;99706.47;4966430;28;20160;-85
2022/06/29 02:09:06;;;;;;;3.90;1.65;;;;;;;19.88;59.74;99704.78;4965904;28;20543;-85
2022/06/29 02:11:31;;;;;;;2.38;1.80;;;;;;;19.88;59.24;99699.38;4966844;28;20595;-85
2022/06/29 02:13:57;;;;;;;2.08;1.30;;;;;;;19.84;58.84;99692.63;4983560;28;20030;-85
2022/06/29 02:16:22;;;;;;;4.03;1.50;;;;;;;19.82;59.71;99694.72;4982077;28;20038;-85
2022/06/29 02:18:48;;;;;;;2.10;1.40;;;;;;;19.83;59.39;99696.41;4964859;28;20038;-85
2022/06/29 02:21:14;;;;;;;2.03;1.45;;;;;;;19.81;59.51;99693.88;4982525;28;20018;-85
2022/06/29 02:23:39;;;;;;;1.40;1.20;;;;;;;19.81;59.46;99690.34;4982937;28;20100;-85
2022/06/29 02:26:04;;;;;;;1.45;1.23;;;;;;;19.81;59.54;99680.31;4982933;28;20081;-85
2022/06/29 02:28:30;;;;;;;1.48;1.15;;;;;;;19.80;59.73;99680.53;4965820;28;20033;-85
2022/06/29 02:36:23;;;;;;;1.98;1.10;;;;;;;19.71;59.69;99679.88;4981931;28;20059;-85
2022/06/29 02:38:48;;;;;;;1.58;1.10;;;;;;;19.73;60.23;99680.50;4982036;28;20022;-85
2022/06/29 02:41:13;;;;;;;1.92;1.30;;;;;;;19.75;60.04;99681.13;4981427;28;20492;-84
2022/06/29 02:43:39;;;;;;;1.52;1.38;;;;;;;19.73;59.49;99675.06;4966278;28;20026;-86
2022/06/29 02:46:04;;;;;;;2.20;1.30;;;;;;;19.72;59.53;99678.00;4966251;28;20117;-85
2022/06/29 02:48:32;;;;;;;2.53;1.50;;;;;;;19.71;59.63;99677.16;4982206;28;20030;-85
2022/06/29 02:50:58;;;;;;;2.53;1.23;;;;;;;19.62;59.42;99672.97;4966723;28;20515;-85
2022/06/29 02:53:23;;;;;;;3.50;1.20;;;;;;;19.60;60.14;99669.63;4966423;28;20301;-85
2022/06/29 02:55:48;;;;;;;1.98;1.13;;;;;;;19.59;60.18;99664.38;4966117;28;20038;-85
2022/06/29 02:58:13;;;;;;;1.40;1.30;;;;;;;19.59;59.41;99662.50;4983653;28;20041;-85
2022/06/29 03:00:39;;;;;;;2.60;1.23;;;;;;;19.53;59.14;99665.22;4982599;28;20049;-86
2022/06/29 03:03:04;;;;;;;1.38;1.27;;;;;;;19.56;60.33;99660.22;4982721;28;20030;-85
2022/06/29 03:05:30;;;;;;;1.17;1.00;;;;;;;19.49;59.91;99660.16;4965970;28;20030;-86
2022/06/29 03:07:55;;;;;;;1.88;1.33;;;;;;;19.55;60.34;99666.69;4982908;28;20551;-85
2022/06/29 03:10:20;;;;;;;1.45;1.15;;;;;;;19.53;60.10;99660.63;4981280;28;20046;-85
2022/06/29 03:12:45;;;;;;;1.48;1.20;;;;;;;19.53;59.95;99667.91;4966362;28;20401;-86
2022/06/29 03:15:11;;;;;;;2.63;1.50;;;;;;;19.51;60.24;99654.53;4981794;28;20408;-87
2022/06/29 03:17:36;;;;;;;3.38;1.30;;;;;;;19.48;60.16;99663.06;4982330;28;20433;-85
2022/06/29 03:20:04;;;;;;;2.17;1.48;;;;;;;19.45;59.20;99649.91;4965191;28;20081;-85
2022/06/29 03:22:30;;;;;;;1.92;1.60;;;;;;;19.39;60.21;99653.41;4966853;28;20058;-85
2022/06/29 03:24:55;;;;;;;2.47;1.38;;;;;;;19.42;60.15;99648.44;4966255;28;20037;-85
2022/06/29 03:27:21;;;;;;;1.40;1.15;;;;;;;19.39;60.07;99658.84;4985691;28;20034;-86
2022/06/29 03:29:46;;;;;;;1.55;1.30;;;;;;;19.37;59.83;99656.31;4968209;28;20801;-85
2022/06/29 03:32:11;;;;;;;2.28;1.30;;;;;;;19.37;59.56;99645.47;4984585;28;20561;-86
2022/06/29 03:34:37;;;;;;;2.08;1.50;;;;;;;19.32;60.31;99647.97;4969436;28;20559;-85
2022/06/29 03:37:02;;;;;;;2.38;1.10;;;;;;;19.34;59.78;99650.47;4985848;28;20433;-85
2022/06/29 03:39:28;;;;;;;1.80;1.23;;;;;;;19.32;60.40;99649.84;4968806;28;20715;-85
2022/06/29 03:41:53;;;;;;;2.55;1.30;;;;;;;19.35;59.88;99635.88;4984394;28;20459;-85
2022/06/29 03:44:18;;;;;;;2.22;1.15;;;;;;;19.36;60.42;99632.13;4968623;28;20132;-85
2022/06/29 03:46:43;;;;;;;2.92;1.40;;;;;;;19.31;60.75;99638.16;4967241;28;20068;-86
2022/06/29 03:49:09;;;;;;;2.90;1.25;;;;;;;19.31;60.65;99640.03;4968269;28;20477;-85
2022/06/29 03:51:34;;;;;;;2.47;1.40;;;;;;;19.28;60.60;99633.13;4969174;28;20030;-86
2022/06/29 03:53:59;;;;;;;2.53;1.38;;;;;;;19.26;60.53;99639.81;4969323;28;20046;-84
2022/06/29 03:56:25;;;;;;;2.47;1.27;;;;;;;19.25;60.73;99649.81;4984482;28;20045;-86
2022/06/29 03:58:50;;;;;;;2.53;1.23;;;;;;;19.24;61.28;99640.00;4968785;28;20033;-85
2022/06/29 04:01:16;;;;;;;3.17;1.70;;;;;;;19.23;61.24;99642.91;4968326;28;20030;-86
2022/06/29 04:03:41;;;;;;;1.55;1.30;;;;;;;19.21;61.58;99647.69;4968779;28;20575;-85
2022/06/29 04:06:07;;;;;;;3.25;1.35;;;;;;;19.18;61.13;99638.09;4984260;28;20337;-84
2022/06/29 04:08:33;;;;;;;2.17;1.65;;;;;;;19.18;60.88;99638.09;4969161;28;20026;-84
2022/06/29 04:10:58;;;;;;;2.30;1.20;;;;;;;19.16;60.89;99632.88;4985378;28;20508;-84
2022/06/29 04:13:23;;;;;;;1.98;1.25;;;;;;;19.16;59.72;99637.47;4985597;28;20038;-84
2022/06/29 04:15:49;;;;;;;4.53;1.30;;;;;;;19.09;60.33;99634.72;4985073;28;20029;-85
2022/06/29 04:18:14;;;;;;;1.40;1.30;;;;;;;19.10;60.76;99639.09;4985103;28;20029;-84
2022/06/29 04:23:24;;;;;;;1.95;1.42;;;;;;;19.15;60.54;99633.06;5486203;22;20198;-84
2022/06/29 04:25:49;;;;;;;1.50;1.17;;;;;;;19.16;61.08;99632.03;4990732;28;20887;-87
2022/06/29 04:28:15;;;;;;;2.63;1.40;;;;;;;19.16;59.95;99640.19;4999360;28;20026;-84
2022/06/29 04:30:40;;;;;;;20.98;2.53;;;;;;;19.15;60.61;99631.19;4988138;28;20409;-84
2022/06/29 04:33:07;;;;;;;4.32;1.40;;;;;;;19.18;60.49;99630.81;4981483;28;20030;-88
2022/06/29 04:35:33;;;;;;;2.17;1.20;;;;;;;19.21;60.21;99626.00;4989825;28;20424;-84
2022/06/29 04:37:58;;;;;;;1.80;1.30;;;;;;;19.12;61.00;99634.31;4988452;28;20034;-84
2022/06/29 04:40:23;;;;;;;2.92;1.58;;;;;;;19.16;61.07;99627.47;4998690;28;20030;-84
2022/06/29 04:42:49;;;;;;;3.17;1.20;;;;;;;19.21;61.19;99628.72;4979855;28;20026;-86
2022/06/29 04:47:59;;;;;;;2.78;1.27;;;;;;;19.26;61.28;99612.69;4990197;28;20041;-84
2022/06/29 04:50:25;;;;;;;2.03;1.20;;;;;;;19.26;61.35;99618.09;4977505;28;20042;-84
2022/06/29 04:52:50;;;;;;;2.80;1.20;;;;;;;19.25;61.64;99614.56;4970652;28;20765;-84
2022/06/29 04:55:15;;;;;;;2.25;1.48;;;;;;;19.25;61.68;99606.41;4972903;28;20046;-87
2022/06/29 04:57:40;;;;;;;1.52;1.20;;;;;;;19.30;61.92;99608.53;4972249;28;20031;-84
2022/06/29 05:00:06;;;;;;;2.22;1.33;;;;;;;19.32;62.56;99611.88;4976240;28;20034;-84
2022/06/29 05:02:32;;;;;;;2.45;1.23;;;;;;;19.38;63.11;99611.06;4970068;28;20295;-84
2022/06/29 05:04:57;;;;;;;2.28;1.20;;;;;;;19.43;63.20;99609.44;4989407;28;20496;-84
2022/06/29 05:07:22;;;;;;;1.67;1.00;;;;;;;19.47;62.60;99616.13;4973555;28;20504;-84
2022/06/29 05:09:48;;;;;;;2.47;1.20;;;;;;;19.51;62.72;99616.56;4974683;28;20145;-86
2022/06/29 05:12:13;;;;;;;1.85;1.30;;;;;;;19.55;62.66;99622.44;4972585;28;20034;-84
2022/06/29 05:14:38;;;;;;;2.78;1.20;;;;;;;19.57;63.41;99621.19;4956270;28;20138;-85
2022/06/29 05:17:04;;;;;;;3.03;1.27;;;;;;;19.58;63.54;99613.88;4987956;28;20119;-84
2022/06/29 05:19:29;;;;;;;2.42;1.30;;;;;;;19.60;64.08;99615.34;4987656;28;20039;-85
2022/06/29 05:21:54;;;;;;;3.45;1.27;;;;;;;19.60;63.85;99611.81;4977165;28;20031;-84
2022/06/29 05:24:19;;;;;;;2.30;1.00;;;;;;;19.60;64.02;99612.63;4985292;28;20042;-84
2022/06/29 05:26:45;;;;;;;1.73;1.13;;;;;;;19.62;64.28;99612.44;4989532;28;20404;-84
2022/06/29 05:29:10;;;;;;;1.85;1.00;;;;;;;19.60;64.30;99607.22;4983396;28;20472;-85
2022/06/29 05:31:35;;;;;;;3.25;1.30;;;;;;;19.60;64.41;99617.22;4990082;28;20388;-86
2022/06/29 05:34:01;;;;;;;3.13;1.10;;;;;;;19.61;65.30;99608.88;4983849;28;20029;-84
2022/06/29 05:36:26;;;;;;;2.83;1.40;;;;;;;19.65;63.91;99614.72;4958635;28;20022;-85
2022/06/29 05:38:52;;;;;;;3.17;1.48;;;;;;;19.67;63.20;99607.22;4955388;28;20038;-84
2022/06/29 05:41:17;;;;;;;2.28;1.27;;;;;;;19.72;63.13;99607.44;4983455;28;20041;-86
2022/06/29 05:43:44;;;;;;;1.90;1.20;;;;;;;19.70;62.61;99613.06;4993304;28;20033;-84
2022/06/29 05:46:10;;;;;;;1.48;1.17;;;;;;;19.70;61.67;99615.78;4991037;28;20109;-84
2022/06/29 05:48:35;;;;;;;2.17;1.20;;;;;;;19.72;62.00;99623.72;4998134;28;20033;-87
2022/06/29 05:51:01;;;;;;;2.05;1.10;;;;;;;19.71;61.75;99625.59;4967001;28;20023;-85
2022/06/29 05:53:27;;;;;;;1.20;1.10;;;;;;;19.73;61.54;99618.09;4997754;28;20038;-86
2022/06/29 05:55:52;;;;;;;2.13;1.30;;;;;;;19.74;61.97;99617.06;4993716;28;20491;-84
2022/06/29 05:58:19;;;;;;;1.42;1.08;;;;;;;19.75;62.14;99613.28;4977451;28;20093;-85
2022/06/29 06:00:45;;;;;;;2.28;1.10;;;;;;;19.78;61.18;99610.16;4992388;28;20023;-84
2022/06/29 06:03:10;;;;;;;2.88;1.20;;;;;;;19.81;61.34;99611.63;4981089;28;20397;-84
2022/06/29 06:05:35;;;;;;;3.15;1.20;;;;;;;19.83;61.72;99606.84;4980658;28;20018;-84
2022/06/29 06:08:01;;;;;;;1.58;1.17;;;;;;;19.85;61.18;99612.88;4981502;28;20040;-90
2022/06/29 06:10:27;;;;;;;2.20;1.10;;;;;;;19.87;61.03;99610.00;4976899;28;20736;-83
2022/06/29 06:12:53;;;;;;;1.50;1.15;;;;;;;19.88;60.79;99615.22;4978560;28;20073;-84
2022/06/29 06:15:18;;;;;;;2.72;1.40;;;;;;;19.88;60.57;99608.97;4997742;28;20385;-86
2022/06/29 06:17:44;;;;;;;2.30;1.60;;;;;;;19.89;60.46;99610.63;4964177;28;20054;-84
2022/06/29 06:20:10;;;;;;;3.88;1.60;;;;;;;19.87;59.91;99610.84;4998765;28;20031;-83
2022/06/29 06:22:35;;;;;;;2.53;1.50;;;;;;;19.87;61.84;99608.13;4979641;28;20117;-84
2022/06/29 06:25:00;;;;;;;2.17;1.52;;;;;;;19.88;62.86;99611.66;4995991;28;20190;-84
2022/06/29 06:27:26;;;;;;;2.50;1.40;;;;;;;19.91;62.52;99605.81;4998575;28;20041;-84
2022/06/29 06:29:51;;;;;;;1.33;1.17;;;;;;;19.97;61.84;99600.41;4960700;28;20034;-84
2022/06/29 06:32:16;;;;;;;1.90;1.40;;;;;;;19.98;62.67;99610.22;4979359;28;20438;-85
2022/06/29 06:34:42;;;;;;;1.40;1.30;;;;;;;20.03;62.79;99618.56;4980161;28;20036;-83
2022/06/29 06:37:07;;;;;;;2.45;1.50;;;;;;;20.09;62.89;99606.88;4977346;28;20046;-84
2022/06/29 06:39:32;;;;;;;2.28;1.40;;;;;;;20.13;62.26;99615.44;4997588;28;20034;-84
2022/06/29 06:41:58;;;;;;;3.70;1.75;;;;;;;20.10;62.44;99616.69;4977658;28;20037;-83
2022/06/29 06:44:23;;;;;;;3.40;1.63;;;;;;;20.08;61.88;99618.78;4980706;28;20046;-84
2022/06/29 06:46:48;;;;;;;3.92;1.50;;;;;;;20.11;62.94;99612.94;4994637;28;20035;-84
2022/06/29 06:49:22;;;;;;;1.98;1.40;;;;;;;20.16;62.10;99606.03;4996903;28;20029;-84
2022/06/29 06:51:49;;;;;;;1.65;1.17;;;;;;;20.16;62.28;99615.03;4978683;28;20697;-84
2022/06/29 06:54:14;;;;;;;3.40;1.60;;;;;;;20.17;62.56;99615.88;4975112;28;20133;-84
2022/06/29 06:56:39;;;;;;;2.15;1.67;;;;;;;20.18;62.48;99612.94;4995027;28;20127;-84
2022/06/29 06:59:04;;;;;;;2.45;1.48;;;;;;;20.18;62.89;99610.22;4964888;28;20034;-84
2022/06/29 07:01:30;;;;;;;2.75;1.20;;;;;;;20.18;62.70;99620.25;4982353;28;20069;-84
2022/06/29 07:03:55;;;;;;;1.38;1.25;;;;;;;20.20;63.34;99620.88;4996944;28;20034;-84
2022/06/29 07:06:20;;;;;;;2.22;1.30;;;;;;;20.22;63.05;99599.78;4982602;28;20042;-84
2022/06/29 07:08:46;;;;;;;2.13;1.30;;;;;;;20.25;62.36;99605.63;4997420;28;20563;-83
2022/06/29 07:11:11;;;;;;;1.85;1.30;;;;;;;20.28;63.22;99607.09;4994057;28;20444;-84
2022/06/29 07:13:37;;;;;;;1.58;1.27;;;;;;;20.31;62.93;99607.50;4977732;28;20150;-84
2022/06/29 07:16:04;;;;;;;1.40;1.23;;;;;;;20.31;63.14;99610.22;4977816;28;20054;-84
2022/06/29 07:18:30;;;;;;;2.72;1.27;;;;;;;20.32;63.43;99603.75;4981473;28;20029;-84
2022/06/29 07:20:55;;;;;;;1.70;1.52;;;;;;;20.36;63.39;99615.88;4999428;28;20022;-86
2022/06/29 07:23:21;;;;;;;1.50;1.40;;;;;;;20.38;63.28;99611.06;4983381;28;20378;-84
2022/06/29 07:25:46;;;;;;;1.98;1.27;;;;;;;20.39;63.70;99601.03;4999264;28;20037;-84
2022/06/29 07:28:11;;;;;;;1.70;1.40;;;;;;;20.42;63.73;99606.09;4981263;28;20524;-84
2022/06/29 07:30:36;;;;;;;1.60;1.35;;;;;;;20.40;63.57;99600.88;4978965;28;20039;-84
2022/06/29 07:33:03;;;;;;;1.85;1.42;;;;;;;20.39;63.94;99604.63;5001180;28;20397;-84
2022/06/29 07:35:29;;;;;;;1.20;1.10;;;;;;;20.39;64.02;99604.63;4982624;28;20069;-84
2022/06/29 07:37:54;;;;;;;1.88;1.20;;;;;;;20.39;64.73;99606.47;4980073;28;20395;-84
2022/06/29 07:40:22;;;;;;;2.28;1.55;;;;;;;20.39;65.41;99603.75;4983114;28;20114;-84
2022/06/29 07:42:47;;;;;;;2.30;1.60;;;;;;;20.40;65.56;99608.19;4997354;28;20030;-83
2022/06/29 07:45:12;;;;;;;2.35;1.33;;;;;;;20.42;65.83;99606.09;4981681;28;20057;-83
2022/06/29 07:47:39;;;;;;;1.67;1.42;;;;;;;20.43;65.51;99613.19;4972246;28;20065;-85
2022/06/29 07:50:05;;;;;;;4.25;1.88;;;;;;;20.42;65.45;99604.22;4975169;28;20085;-84
2022/06/29 07:52:33;;;;;;;2.63;1.50;;;;;;;20.41;65.34;99607.97;4979422;28;20038;-84
2022/06/29 07:54:58;;;;;;;1.40;1.30;;;;;;;20.43;65.09;99605.03;4960625;28;20111;-83
2022/06/29 07:57:23;;;;;;;3.15;1.50;;;;;;;20.47;65.66;99608.16;4959609;28;20155;-84
2022/06/29 07:59:49;;;;;;;1.77;1.42;;;;;;;20.52;65.41;99602.94;4977148;28;20503;-84
2022/06/29 08:02:15;;;;;;;3.17;1.20;;;;;;;20.56;65.24;99610.47;4987408;28;20022;-84
2022/06/29 08:04:40;;;;;;;1.90;1.13;;;;;;;20.59;65.61;99604.59;4995979;28;20023;-84
2022/06/29 08:07:05;;;;;;;1.30;1.20;;;;;;;20.61;65.89;99601.66;4977284;28;20022;-84
2022/06/29 08:09:32;;;;;;;3.03;1.50;;;;;;;20.63;64.96;99599.56;4966178;28;20399;-84
2022/06/29 08:11:57;;;;;;;3.22;1.35;;;;;;;20.67;66.05;99606.25;4978065;28;20030;-86
2022/06/29 08:14:22;;;;;;;1.80;1.30;;;;;;;20.68;65.00;99602.50;4991210;28;20043;-83
2022/06/29 08:16:48;;;;;;;2.00;1.25;;;;;;;20.69;65.35;99601.44;4982398;28;20035;-86
2022/06/29 08:19:13;;;;;;;1.77;1.33;;;;;;;20.70;65.30;99606.66;4996061;28;20031;-84
2022/06/29 08:21:38;;;;;;;2.25;1.30;;;;;;;20.70;65.32;99609.38;4985436;28;20030;-87
2022/06/29 08:24:04;;;;;;;3.00;1.30;;;;;;;20.74;65.29;99598.91;4981878;28;20050;-84
2022/06/29 08:26:29;;;;;;;1.52;1.40;;;;;;;20.77;65.39;99594.94;4981109;28;20501;-84
2022/06/29 08:28:54;;;;;;;2.20;1.20;;;;;;;20.79;65.21;99598.28;4993484;28;20539;-84
2022/06/29 08:31:20;;;;;;;2.92;1.30;;;;;;;20.81;65.93;99599.78;4963722;28;20142;-87
2022/06/29 08:33:46;;;;;;;2.67;1.60;;;;;;;20.84;65.87;99602.06;4996906;28;20246;-83
2022/06/29 08:36:11;;;;;;;2.42;1.25;;;;;;;20.88;65.66;99602.47;4996660;28;20077;-85
2022/06/29 08:38:37;;;;;;;2.72;1.20;;;;;;;20.89;65.26;99602.25;4996467;28;20030;-85
2022/06/29 08:41:02;;;;;;;1.95;1.40;;;;;;;20.91;65.31;99596.59;4981804;28;20031;-86
2022/06/29 08:43:27;;;;;;;1.98;1.30;;;;;;;20.92;65.23;99596.38;4999474;28;20029;-84
2022/06/29 08:45:53;;;;;;;3.10;1.60;;;;;;;20.95;65.31;99604.13;4994176;28;20035;-85
2022/06/29 08:48:19;;;;;;;2.85;1.60;;;;;;;20.95;65.08;99600.56;4998500;28;20034;-87
2022/06/29 08:50:50;;;;;;;3.08;1.50;;;;;;;20.94;64.94;99597.00;4981345;28;20081;-86
2022/06/29 08:53:16;;;;;;;1.90;1.33;;;;;;;20.97;65.23;99599.28;4995631;28;20385;-87
2022/06/29 08:55:46;;;;;;;4.03;1.42;;;;;;;20.99;65.41;99599.91;4984883;28;20867;-87
2022/06/29 08:58:20;;;;;;;3.10;1.60;;;;;;;21.02;64.07;99594.06;4989697;28;20037;-85
2022/06/29 09:00:52;;;;;;;1.83;1.25;;;;;;;21.04;64.69;99602.81;4992920;28;20091;-88
2022/06/29 09:03:18;;;;;;;5.75;1.60;;;;;;;21.08;65.03;99602.41;4970647;28;20030;-85
2022/06/29 09:05:49;;;;;;;4.05;1.40;;;;;;;21.08;65.98;99602.41;4978213;28;20031;-84
2022/06/29 09:08:15;;;;;;;3.78;1.38;;;;;;;21.09;65.88;99598.63;4978223;28;21521;-88
2022/06/29 09:10:41;;;;;;;3.33;1.65;;;;;;;21.11;65.82;99596.53;4993528;28;20058;-87
2022/06/29 09:13:08;;;;;;;3.00;1.45;;;;;;;21.12;66.96;99596.31;4978430;28;20472;-85
2022/06/29 09:15:41;;;;;;;3.83;1.70;;;;;;;21.17;67.45;99595.66;4979184;28;20092;-84
2022/06/29 09:18:24;;;;;;;3.08;1.95;;;;;;;21.21;67.54;99595.00;4981454;28;20053;-84
2022/06/29 09:20:55;;;;;;;3.53;1.80;;;;;;;21.24;67.00;99599.22;4977341;28;20540;-88
2022/06/29 09:23:24;;;;;;;6.82;1.70;;;;;;;21.28;67.84;99598.56;4995718;28;20030;-83
2022/06/29 09:25:50;;;;;;;5.00;1.77;;;;;;;21.30;67.58;99598.38;4978743;28;20027;-85
2022/06/29 09:28:24;;;;;;;3.17;1.60;;;;;;;21.38;67.32;99591.84;4961852;28;20033;-84
2022/06/29 09:30:52;;;;;;;2.92;1.40;;;;;;;21.41;65.07;99596.88;4974850;28;20030;-84
2022/06/29 09:33:20;;;;;;;1.80;1.40;;;;;;;21.42;64.96;99599.38;4978763;28;20062;-84
2022/06/29 09:36:07;;;;;;;2.28;1.40;;;;;;;21.41;64.74;99596.88;4975991;28;20105;-83
2022/06/29 09:38:32;;;;;;;2.13;1.30;;;;;;;21.42;65.07;99593.94;4992315;28;20046;-84
2022/06/29 09:41:04;;;;;;;2.33;1.30;;;;;;;21.47;63.35;99599.53;4977709;28;20077;-87
2022/06/29 09:43:34;;;;;;;1.75;1.20;;;;;;;21.49;62.64;99602.06;4959966;28;20389;-86
2022/06/29 09:46:00;;;;;;;3.00;1.30;;;;;;;21.51;61.64;99598.06;4976639;28;20022;-85
2022/06/29 09:48:26;;;;;;;2.08;1.02;;;;;;;21.53;60.80;99595.94;4964426;28;20433;-87
2022/06/29 09:50:53;;;;;;;1.45;1.00;;;;;;;21.53;60.44;99598.69;4979028;28;20026;-88
2022/06/29 09:53:24;;;;;;;1.10;1.00;;;;;;;21.53;61.43;99595.13;4980031;28;20110;-84
2022/06/29 09:55:52;;;;;;;1.45;0.95;;;;;;;21.53;59.35;99598.69;4996206;28;20396;-87
2022/06/29 09:58:27;;;;;;;1.92;1.02;;;;;;;21.52;59.05;99604.34;4979695;28;20031;-84
2022/06/29 10:03:37;;;;;;;1.65;1.00;;;;;;;21.55;56.54;99599.28;4991233;28;20125;-84
2022/06/29 10:06:06;;;;;;;2.78;1.00;;;;;;;21.58;58.29;99598.84;4979145;28;20456;-86
2022/06/29 10:08:32;;;;;;;2.10;1.00;;;;;;;21.66;56.58;99601.31;4996580;28;20527;-84
2022/06/29 10:13:39;;;;;;;1.80;1.00;;;;;;;21.68;56.14;99591.03;4976889;28;20039;-84
2022/06/29 10:13:47;;;;;;;2.17;1.02;;;;;;;21.76;54.57;99592.69;4991539;28;20962;-84
2022/06/29 10:16:33;;;;;;;1.73;0.98;;;;;;;21.80;54.26;99593.09;4977687;28;20039;-86
2022/06/29 10:19:24;;;;;;;1.42;1.05;;;;;;;21.91;51.53;99586.94;4976979;28;20065;-84
2022/06/29 10:21:50;;;;;;;1.77;0.85;;;;;;;21.96;51.13;99589.81;4979619;28;20034;-87
2022/06/29 10:24:17;;;;;;;1.00;0.82;;;;;;;22.04;50.69;99596.91;4996728;28;20462;-84
2022/06/29 10:26:44;;;;;;;1.25;0.77;;;;;;;21.95;51.58;99590.88;4962538;28;20038;-86
2022/06/29 10:29:10;;;;;;;1.10;1.00;;;;;;;21.89;50.10;99589.88;4981764;28;20030;-87
2022/06/29 10:32:02;;;;;;;1.42;0.85;;;;;;;21.90;49.64;99591.53;4978830;28;20294;-84
2022/06/29 10:34:34;;;;;;;2.53;1.20;;;;;;;21.92;48.94;99581.25;4978225;28;20077;-85
2022/06/29 10:37:02;;;;;;;3.33;0.98;;;;;;;21.89;49.11;99581.72;4983156;28;20035;-85
2022/06/29 10:39:48;;;;;;;2.40;1.00;;;;;;;21.89;49.85;99581.72;4981013;28;20035;-84
2022/06/29 10:45:12;;;;;;;1.50;0.90;;;;;;;21.89;51.21;99565.38;4984598;28;20072;-87
2022/06/29 10:47:38;;;;;;;1.23;1.10;;;;;;;21.91;50.59;99567.88;4979815;28;20034;-84
2022/06/29 10:50:16;;;;;;;0.82;0.82;;;;;;;21.92;51.04;99572.25;4965199;28;20085;-83
2022/06/29 10:52:42;;;;;;;1.67;1.00;;;;;;;21.96;51.50;99570.75;4984881;28;20035;-85
2022/06/29 10:55:08;;;;;;;1.45;1.10;;;;;;;22.13;52.31;99577.34;4981666;28;20036;-83
2022/06/29 10:57:34;;;;;;;1.23;1.00;;;;;;;22.07;52.50;99566.53;4980627;28;20050;-83
2022/06/29 11:00:00;;;;;;;2.42;1.13;;;;;;;22.01;51.66;99565.47;4984208;28;20026;-83
2022/06/29 11:02:25;;;;;;;1.45;0.93;;;;;;;22.04;50.69;99567.78;4997766;28;20479;-83
2022/06/29 11:04:51;;;;;;;0.88;0.80;;;;;;;22.01;51.78;99557.31;4981525;28;20433;-83
2022/06/29 11:12:52;;;;;;;1.20;1.05;;;;;;;22.04;53.80;99550.63;4996752;28;20084;-83
2022/06/29 11:15:41;;;;;;;1.67;1.00;;;;;;;22.06;53.89;99541.16;4982842;28;20026;-83
2022/06/29 11:18:14;;;;;;;1.52;1.10;;;;;;;22.08;54.92;99539.06;4996253;28;20038;-83
2022/06/29 11:20:41;;;;;;;1.42;1.00;;;;;;;22.09;53.08;99534.44;4994856;28;20033;-83
2022/06/29 11:23:14;;;;;;;2.35;1.00;;;;;;;22.13;54.67;99535.66;4979758;28;20100;-83
2022/06/29 11:25:49;;;;;;;1.65;1.20;;;;;;;22.16;54.27;99533.31;4978581;28;21418;-76
2022/06/29 11:28:19;;;;;;;2.45;1.27;;;;;;;22.20;54.15;99529.09;4983957;28;20035;-81
2022/06/29 11:31:03;;;;;;;1.45;1.10;;;;;;;22.22;54.54;99526.97;4983083;28;20069;-81
2022/06/29 11:33:30;;;;;;;1.65;1.10;;;;;;;22.24;54.21;99519.44;4983626;28;20031;-81
2022/06/29 11:35:56;;;;;;;1.23;1.13;;;;;;;22.27;54.82;99526.34;4983436;28;20362;-83
2022/06/29 11:38:26;;;;;;;2.97;1.20;;;;;;;22.29;54.95;99521.50;4985146;28;20033;-81
2022/06/29 11:40:54;;;;;;;2.33;1.30;;;;;;;22.32;54.03;99523.75;5001525;28;20121;-81
2022/06/29 11:43:20;;;;;;;2.50;1.30;;;;;;;22.35;55.27;99517.88;4999677;28;20026;-81
2022/06/29 11:45:49;;;;;;;1.50;1.40;;;;;;;22.39;53.14;99512.78;4994141;28;20030;-81
2022/06/29 11:48:19;;;;;;;1.52;1.10;;;;;;;22.44;52.75;99523.84;4981590;28;20089;-83
2022/06/29 11:50:46;;;;;;;2.90;1.20;;;;;;;22.44;54.65;99523.84;4997422;28;20022;-83
2022/06/29 11:53:11;;;;;;;1.60;1.05;;;;;;;22.46;54.90;99517.13;4983356;28;20031;-84